sensor_id;sensor_type;location;lat;lon;timestamp;P1;durP1;ratioP1;P2;durP2;ratioP2
15385;SDS011;7791;47.246;9.648;2022-11-15T00:00:49;36.87;;;21.30;;
15385;SDS011;7791;47.246;9.648;2022-11-15T00:03:15;36.07;;;18.13;;
15385;SDS011;7791;47.246;9.648;2022-11-15T00:05:44;35.67;;;18.37;;
15385;SDS011;7791;47.246;9.648;2022-11-15T00:08:12;39.27;;;18.73;;
15385;SDS011;7791;47.246;9.648;2022-11-15T00:10:40;37.77;;;20.20;;
15385;SDS011;7791;47.246;9.648;2022-11-15T00:13:10;43.73;;;23.50;;
15385;SDS011;7791;47.246;9.648;2022-11-15T00:15:38;40.53;;;21.10;;
15385;SDS011;7791;47.246;9.648;2022-11-15T00:18:05;35.77;;;19.83;;
15385;SDS011;7791;47.246;9.648;2022-11-15T00:20:39;34.27;;;18.43;;
15385;SDS011;7791;47.246;9.648;2022-11-15T00:23:06;39.80;;;20.23;;
15385;SDS011;7791;47.246;9.648;2022-11-15T00:25:32;37.33;;;19.00;;
15385;SDS011;7791;47.246;9.648;2022-11-15T00:28:00;34.50;;;19.17;;
15385;SDS011;7791;47.246;9.648;2022-11-15T00:30:27;34.60;;;18.10;;
15385;SDS011;7791;47.246;9.648;2022-11-15T00:32:55;32.27;;;17.57;;
15385;SDS011;7791;47.246;9.648;2022-11-15T00:35:26;34.30;;;18.70;;
15385;SDS011;7791;47.246;9.648;2022-11-15T00:37:52;42.43;;;22.23;;
15385;SDS011;7791;47.246;9.648;2022-11-15T00:40:21;43.70;;;24.07;;
15385;SDS011;7791;47.246;9.648;2022-11-15T00:42:46;41.20;;;24.03;;
15385;SDS011;7791;47.246;9.648;2022-11-15T00:45:12;33.93;;;18.40;;
15385;SDS011;7791;47.246;9.648;2022-11-15T00:47:40;30.63;;;16.67;;
15385;SDS011;7791;47.246;9.648;2022-11-15T00:50:08;34.47;;;16.17;;
15385;SDS011;7791;47.246;9.648;2022-11-15T00:52:36;30.60;;;15.57;;
15385;SDS011;7791;47.246;9.648;2022-11-15T00:55:03;31.23;;;17.33;;
15385;SDS011;7791;47.246;9.648;2022-11-15T00:57:30;40.87;;;21.03;;
15385;SDS011;7791;47.246;9.648;2022-11-15T00:59:57;38.10;;;19.57;;
15385;SDS011;7791;47.246;9.648;2022-11-15T01:02:24;33.57;;;18.37;;
15385;SDS011;7791;47.246;9.648;2022-11-15T01:04:51;35.43;;;19.90;;
15385;SDS011;7791;47.246;9.648;2022-11-15T01:07:19;35.00;;;18.97;;
15385;SDS011;7791;47.246;9.648;2022-11-15T01:09:51;38.53;;;18.73;;
15385;SDS011;7791;47.246;9.648;2022-11-15T01:12:22;34.60;;;18.67;;
15385;SDS011;7791;47.246;9.648;2022-11-15T01:14:49;35.47;;;18.53;;
15385;SDS011;7791;47.246;9.648;2022-11-15T01:17:15;33.60;;;18.53;;
15385;SDS011;7791;47.246;9.648;2022-11-15T01:19:41;34.37;;;18.17;;
15385;SDS011;7791;47.246;9.648;2022-11-15T01:22:08;34.37;;;18.07;;
15385;SDS011;7791;47.246;9.648;2022-11-15T01:24:35;32.90;;;16.87;;
15385;SDS011;7791;47.246;9.648;2022-11-15T01:27:01;38.63;;;17.63;;
15385;SDS011;7791;47.246;9.648;2022-11-15T01:29:31;36.40;;;17.93;;
15385;SDS011;7791;47.246;9.648;2022-11-15T01:32:00;31.43;;;16.97;;
15385;SDS011;7791;47.246;9.648;2022-11-15T01:34:28;30.37;;;17.97;;
15385;SDS011;7791;47.246;9.648;2022-11-15T01:36:56;35.40;;;18.60;;
15385;SDS011;7791;47.246;9.648;2022-11-15T01:39:24;32.43;;;16.87;;
15385;SDS011;7791;47.246;9.648;2022-11-15T01:41:50;34.93;;;16.63;;
15385;SDS011;7791;47.246;9.648;2022-11-15T01:47:07;34.43;;;17.47;;
15385;SDS011;7791;47.246;9.648;2022-11-15T01:49:41;38.83;;;18.27;;
15385;SDS011;7791;47.246;9.648;2022-11-15T01:52:15;28.97;;;15.37;;
15385;SDS011;7791;47.246;9.648;2022-11-15T01:54:48;27.93;;;15.23;;
15385;SDS011;7791;47.246;9.648;2022-11-15T01:57:18;31.30;;;17.13;;
15385;SDS011;7791;47.246;9.648;2022-11-15T01:59:45;28.97;;;16.40;;
15385;SDS011;7791;47.246;9.648;2022-11-15T02:02:16;32.80;;;17.40;;
15385;SDS011;7791;47.246;9.648;2022-11-15T02:04:42;34.20;;;17.00;;
15385;SDS011;7791;47.246;9.648;2022-11-15T02:07:10;33.90;;;18.37;;
15385;SDS011;7791;47.246;9.648;2022-11-15T02:09:44;36.20;;;18.00;;
15385;SDS011;7791;47.246;9.648;2022-11-15T02:12:13;29.27;;;16.67;;
15385;SDS011;7791;47.246;9.648;2022-11-15T02:14:41;31.27;;;17.10;;
15385;SDS011;7791;47.246;9.648;2022-11-15T02:17:16;32.53;;;16.60;;
15385;SDS011;7791;47.246;9.648;2022-11-15T02:22:58;30.30;;;15.40;;
15385;SDS011;7791;47.246;9.648;2022-11-15T02:25:46;29.20;;;16.20;;
15385;SDS011;7791;47.246;9.648;2022-11-15T02:28:34;30.97;;;15.43;;
15385;SDS011;7791;47.246;9.648;2022-11-15T02:31:14;31.00;;;15.77;;
15385;SDS011;7791;47.246;9.648;2022-11-15T02:33:52;30.87;;;15.63;;
15385;SDS011;7791;47.246;9.648;2022-11-15T02:36:29;32.57;;;15.40;;
15385;SDS011;7791;47.246;9.648;2022-11-15T02:39:02;31.20;;;15.77;;
15385;SDS011;7791;47.246;9.648;2022-11-15T02:41:38;30.73;;;15.37;;
15385;SDS011;7791;47.246;9.648;2022-11-15T02:44:13;32.13;;;15.10;;
15385;SDS011;7791;47.246;9.648;2022-11-15T02:46:45;28.27;;;15.10;;
15385;SDS011;7791;47.246;9.648;2022-11-15T02:49:16;30.60;;;15.37;;
15385;SDS011;7791;47.246;9.648;2022-11-15T02:51:46;29.20;;;15.23;;
15385;SDS011;7791;47.246;9.648;2022-11-15T02:54:17;30.40;;;14.70;;
15385;SDS011;7791;47.246;9.648;2022-11-15T02:56:48;27.90;;;14.60;;
15385;SDS011;7791;47.246;9.648;2022-11-15T02:59:20;28.77;;;13.17;;
15385;SDS011;7791;47.246;9.648;2022-11-15T03:02:28;24.97;;;14.77;;
15385;SDS011;7791;47.246;9.648;2022-11-15T03:05:07;28.27;;;13.53;;
15385;SDS011;7791;47.246;9.648;2022-11-15T03:07:49;27.33;;;13.57;;
15385;SDS011;7791;47.246;9.648;2022-11-15T03:10:21;31.60;;;13.87;;
15385;SDS011;7791;47.246;9.648;2022-11-15T03:12:51;25.27;;;13.60;;
15385;SDS011;7791;47.246;9.648;2022-11-15T03:15:21;23.50;;;12.67;;
15385;SDS011;7791;47.246;9.648;2022-11-15T03:17:57;25.70;;;12.53;;
15385;SDS011;7791;47.246;9.648;2022-11-15T03:20:30;30.90;;;13.73;;
15385;SDS011;7791;47.246;9.648;2022-11-15T03:23:00;23.67;;;12.40;;
15385;SDS011;7791;47.246;9.648;2022-11-15T03:25:32;29.43;;;13.23;;
15385;SDS011;7791;47.246;9.648;2022-11-15T03:27:59;22.80;;;11.67;;
15385;SDS011;7791;47.246;9.648;2022-11-15T03:30:32;24.30;;;12.57;;
15385;SDS011;7791;47.246;9.648;2022-11-15T03:33:03;23.20;;;11.10;;
15385;SDS011;7791;47.246;9.648;2022-11-15T03:35:35;22.07;;;11.57;;
15385;SDS011;7791;47.246;9.648;2022-11-15T03:38:06;22.13;;;11.33;;
15385;SDS011;7791;47.246;9.648;2022-11-15T03:40:41;25.77;;;11.23;;
15385;SDS011;7791;47.246;9.648;2022-11-15T03:43:15;25.97;;;10.90;;
15385;SDS011;7791;47.246;9.648;2022-11-15T03:45:50;24.17;;;11.53;;
15385;SDS011;7791;47.246;9.648;2022-11-15T03:48:30;20.50;;;11.43;;
15385;SDS011;7791;47.246;9.648;2022-11-15T03:51:01;23.63;;;11.30;;
15385;SDS011;7791;47.246;9.648;2022-11-15T03:53:27;20.33;;;10.33;;
15385;SDS011;7791;47.246;9.648;2022-11-15T03:55:53;23.77;;;11.27;;
15385;SDS011;7791;47.246;9.648;2022-11-15T03:58:21;27.17;;;11.93;;
15385;SDS011;7791;47.246;9.648;2022-11-15T04:00:46;27.20;;;12.60;;
15385;SDS011;7791;47.246;9.648;2022-11-15T04:03:12;26.33;;;11.53;;
15385;SDS011;7791;47.246;9.648;2022-11-15T04:05:41;24.13;;;10.63;;
15385;SDS011;7791;47.246;9.648;2022-11-15T04:08:06;19.53;;;10.60;;
15385;SDS011;7791;47.246;9.648;2022-11-15T04:10:33;31.80;;;11.60;;
15385;SDS011;7791;47.246;9.648;2022-11-15T04:12:59;24.90;;;11.20;;
15385;SDS011;7791;47.246;9.648;2022-11-15T04:15:34;22.67;;;11.07;;
15385;SDS011;7791;47.246;9.648;2022-11-15T04:18:00;25.60;;;11.00;;
15385;SDS011;7791;47.246;9.648;2022-11-15T04:20:31;19.03;;;9.73;;
15385;SDS011;7791;47.246;9.648;2022-11-15T04:22:59;23.17;;;10.17;;
15385;SDS011;7791;47.246;9.648;2022-11-15T04:25:29;20.57;;;10.37;;
15385;SDS011;7791;47.246;9.648;2022-11-15T04:27:58;24.20;;;10.83;;
15385;SDS011;7791;47.246;9.648;2022-11-15T04:30:25;21.70;;;10.87;;
15385;SDS011;7791;47.246;9.648;2022-11-15T04:32:50;27.07;;;11.23;;
15385;SDS011;7791;47.246;9.648;2022-11-15T04:35:18;25.90;;;11.63;;
15385;SDS011;7791;47.246;9.648;2022-11-15T04:37:45;24.43;;;10.40;;
15385;SDS011;7791;47.246;9.648;2022-11-15T04:40:13;24.07;;;11.10;;
15385;SDS011;7791;47.246;9.648;2022-11-15T04:42:40;24.80;;;10.90;;
15385;SDS011;7791;47.246;9.648;2022-11-15T04:45:07;26.33;;;12.03;;
15385;SDS011;7791;47.246;9.648;2022-11-15T04:47:33;21.03;;;10.83;;
15385;SDS011;7791;47.246;9.648;2022-11-15T04:49:59;20.40;;;9.90;;
15385;SDS011;7791;47.246;9.648;2022-11-15T04:52:26;22.13;;;10.57;;
15385;SDS011;7791;47.246;9.648;2022-11-15T04:54:55;24.30;;;10.33;;
15385;SDS011;7791;47.246;9.648;2022-11-15T04:57:25;20.37;;;10.07;;
15385;SDS011;7791;47.246;9.648;2022-11-15T04:59:53;27.27;;;10.83;;
15385;SDS011;7791;47.246;9.648;2022-11-15T05:02:21;25.77;;;11.47;;
15385;SDS011;7791;47.246;9.648;2022-11-15T05:04:47;28.17;;;11.17;;
15385;SDS011;7791;47.246;9.648;2022-11-15T05:07:13;26.33;;;11.37;;
15385;SDS011;7791;47.246;9.648;2022-11-15T05:09:41;26.63;;;10.83;;
15385;SDS011;7791;47.246;9.648;2022-11-15T05:12:07;24.13;;;10.57;;
15385;SDS011;7791;47.246;9.648;2022-11-15T05:14:35;23.00;;;9.50;;
15385;SDS011;7791;47.246;9.648;2022-11-15T05:17:01;24.10;;;10.17;;
15385;SDS011;7791;47.246;9.648;2022-11-15T05:19:29;26.93;;;10.20;;
15385;SDS011;7791;47.246;9.648;2022-11-15T05:21:56;21.13;;;10.23;;
15385;SDS011;7791;47.246;9.648;2022-11-15T05:24:24;25.57;;;10.20;;
15385;SDS011;7791;47.246;9.648;2022-11-15T05:26:53;22.53;;;9.97;;
15385;SDS011;7791;47.246;9.648;2022-11-15T05:29:19;20.37;;;10.47;;
15385;SDS011;7791;47.246;9.648;2022-11-15T05:31:50;25.40;;;12.10;;
15385;SDS011;7791;47.246;9.648;2022-11-15T05:34:20;22.93;;;11.03;;
15385;SDS011;7791;47.246;9.648;2022-11-15T05:36:48;28.53;;;11.47;;
15385;SDS011;7791;47.246;9.648;2022-11-15T05:39:20;24.10;;;10.87;;
15385;SDS011;7791;47.246;9.648;2022-11-15T05:41:50;22.10;;;10.37;;
15385;SDS011;7791;47.246;9.648;2022-11-15T05:44:26;26.23;;;9.90;;
15385;SDS011;7791;47.246;9.648;2022-11-15T05:46:54;25.13;;;10.57;;
15385;SDS011;7791;47.246;9.648;2022-11-15T05:49:24;20.97;;;9.50;;
15385;SDS011;7791;47.246;9.648;2022-11-15T05:51:55;25.87;;;11.30;;
15385;SDS011;7791;47.246;9.648;2022-11-15T05:54:24;28.90;;;12.27;;
15385;SDS011;7791;47.246;9.648;2022-11-15T05:56:51;28.73;;;13.47;;
15385;SDS011;7791;47.246;9.648;2022-11-15T05:59:19;25.60;;;10.83;;
15385;SDS011;7791;47.246;9.648;2022-11-15T06:01:46;27.17;;;11.77;;
15385;SDS011;7791;47.246;9.648;2022-11-15T06:04:17;27.37;;;11.17;;
15385;SDS011;7791;47.246;9.648;2022-11-15T06:06:44;27.17;;;11.77;;
15385;SDS011;7791;47.246;9.648;2022-11-15T06:09:11;25.30;;;11.43;;
15385;SDS011;7791;47.246;9.648;2022-11-15T06:11:39;22.67;;;10.90;;
15385;SDS011;7791;47.246;9.648;2022-11-15T06:14:05;28.70;;;11.53;;
15385;SDS011;7791;47.246;9.648;2022-11-15T06:16:31;30.30;;;12.83;;
15385;SDS011;7791;47.246;9.648;2022-11-15T06:18:58;27.63;;;12.13;;
15385;SDS011;7791;47.246;9.648;2022-11-15T06:21:26;29.87;;;11.53;;
15385;SDS011;7791;47.246;9.648;2022-11-15T06:23:54;28.23;;;12.07;;
15385;SDS011;7791;47.246;9.648;2022-11-15T06:26:24;30.33;;;12.27;;
15385;SDS011;7791;47.246;9.648;2022-11-15T06:28:53;57.80;;;30.00;;
15385;SDS011;7791;47.246;9.648;2022-11-15T06:31:23;37.70;;;17.10;;
15385;SDS011;7791;47.246;9.648;2022-11-15T06:33:53;33.03;;;13.33;;
15385;SDS011;7791;47.246;9.648;2022-11-15T06:36:19;30.70;;;13.77;;
15385;SDS011;7791;47.246;9.648;2022-11-15T06:38:47;57.67;;;27.33;;
15385;SDS011;7791;47.246;9.648;2022-11-15T06:41:13;34.33;;;15.77;;
15385;SDS011;7791;47.246;9.648;2022-11-15T06:43:42;24.60;;;12.13;;
15385;SDS011;7791;47.246;9.648;2022-11-15T06:46:16;32.43;;;13.77;;
15385;SDS011;7791;47.246;9.648;2022-11-15T06:48:47;38.63;;;14.67;;
15385;SDS011;7791;47.246;9.648;2022-11-15T06:51:16;30.97;;;13.27;;
15385;SDS011;7791;47.246;9.648;2022-11-15T06:53:42;34.37;;;13.07;;
15385;SDS011;7791;47.246;9.648;2022-11-15T06:56:10;34.27;;;15.00;;
15385;SDS011;7791;47.246;9.648;2022-11-15T06:58:39;31.93;;;14.33;;
15385;SDS011;7791;47.246;9.648;2022-11-15T07:01:06;29.33;;;13.57;;
15385;SDS011;7791;47.246;9.648;2022-11-15T07:03:34;29.07;;;12.67;;
15385;SDS011;7791;47.246;9.648;2022-11-15T07:06:02;31.40;;;13.03;;
15385;SDS011;7791;47.246;9.648;2022-11-15T07:08:28;25.43;;;12.70;;
15385;SDS011;7791;47.246;9.648;2022-11-15T07:10:58;46.70;;;25.57;;
15385;SDS011;7791;47.246;9.648;2022-11-15T07:13:28;34.67;;;15.10;;
15385;SDS011;7791;47.246;9.648;2022-11-15T07:15:56;44.00;;;19.07;;
15385;SDS011;7791;47.246;9.648;2022-11-15T07:18:23;49.70;;;24.20;;
15385;SDS011;7791;47.246;9.648;2022-11-15T07:20:51;29.90;;;14.33;;
15385;SDS011;7791;47.246;9.648;2022-11-15T07:23:17;32.00;;;13.60;;
15385;SDS011;7791;47.246;9.648;2022-11-15T07:25:46;30.57;;;14.07;;
15385;SDS011;7791;47.246;9.648;2022-11-15T07:28:13;33.23;;;15.10;;
15385;SDS011;7791;47.246;9.648;2022-11-15T07:30:41;35.80;;;15.50;;
15385;SDS011;7791;47.246;9.648;2022-11-15T07:33:09;43.13;;;18.30;;
15385;SDS011;7791;47.246;9.648;2022-11-15T07:35:36;34.30;;;16.50;;
15385;SDS011;7791;47.246;9.648;2022-11-15T07:38:05;42.27;;;18.40;;
15385;SDS011;7791;47.246;9.648;2022-11-15T07:40:34;40.30;;;20.33;;
15385;SDS011;7791;47.246;9.648;2022-11-15T07:43:04;42.70;;;24.07;;
15385;SDS011;7791;47.246;9.648;2022-11-15T07:45:33;34.83;;;18.50;;
15385;SDS011;7791;47.246;9.648;2022-11-15T07:48:08;33.43;;;14.83;;
15385;SDS011;7791;47.246;9.648;2022-11-15T07:50:36;24.73;;;12.93;;
15385;SDS011;7791;47.246;9.648;2022-11-15T07:53:07;20.00;;;11.60;;
15385;SDS011;7791;47.246;9.648;2022-11-15T07:55:33;21.53;;;10.50;;
15385;SDS011;7791;47.246;9.648;2022-11-15T07:58:01;19.63;;;10.40;;
15385;SDS011;7791;47.246;9.648;2022-11-15T08:00:27;25.03;;;13.87;;
15385;SDS011;7791;47.246;9.648;2022-11-15T08:03:00;14.13;;;9.10;;
15385;SDS011;7791;47.246;9.648;2022-11-15T08:05:33;16.33;;;10.03;;
15385;SDS011;7791;47.246;9.648;2022-11-15T08:07:59;14.90;;;9.53;;
15385;SDS011;7791;47.246;9.648;2022-11-15T08:10:26;16.27;;;10.17;;
15385;SDS011;7791;47.246;9.648;2022-11-15T08:12:59;23.53;;;10.20;;
15385;SDS011;7791;47.246;9.648;2022-11-15T08:15:28;16.93;;;9.93;;
15385;SDS011;7791;47.246;9.648;2022-11-15T08:17:55;16.87;;;9.57;;
15385;SDS011;7791;47.246;9.648;2022-11-15T08:20:24;19.87;;;12.23;;
15385;SDS011;7791;47.246;9.648;2022-11-15T08:22:56;21.43;;;12.43;;
15385;SDS011;7791;47.246;9.648;2022-11-15T08:25:22;16.30;;;9.97;;
15385;SDS011;7791;47.246;9.648;2022-11-15T08:27:51;18.47;;;9.60;;
15385;SDS011;7791;47.246;9.648;2022-11-15T08:30:17;17.27;;;10.10;;
15385;SDS011;7791;47.246;9.648;2022-11-15T08:32:44;13.00;;;7.43;;
15385;SDS011;7791;47.246;9.648;2022-11-15T08:35:13;32.77;;;23.60;;
15385;SDS011;7791;47.246;9.648;2022-11-15T08:37:39;16.17;;;7.77;;
15385;SDS011;7791;47.246;9.648;2022-11-15T08:40:07;12.43;;;6.70;;
15385;SDS011;7791;47.246;9.648;2022-11-15T08:42:34;17.00;;;8.23;;
15385;SDS011;7791;47.246;9.648;2022-11-15T08:45:03;16.53;;;8.63;;
15385;SDS011;7791;47.246;9.648;2022-11-15T08:47:31;19.60;;;8.17;;
15385;SDS011;7791;47.246;9.648;2022-11-15T08:49:56;15.00;;;7.73;;
15385;SDS011;7791;47.246;9.648;2022-11-15T08:52:24;12.00;;;6.93;;
15385;SDS011;7791;47.246;9.648;2022-11-15T08:54:50;10.27;;;6.10;;
15385;SDS011;7791;47.246;9.648;2022-11-15T08:57:17;12.13;;;5.50;;
15385;SDS011;7791;47.246;9.648;2022-11-15T08:59:46;9.00;;;5.43;;
15385;SDS011;7791;47.246;9.648;2022-11-15T09:02:12;10.57;;;5.03;;
15385;SDS011;7791;47.246;9.648;2022-11-15T09:04:40;8.63;;;4.90;;
15385;SDS011;7791;47.246;9.648;2022-11-15T09:07:05;7.27;;;4.20;;
15385;SDS011;7791;47.246;9.648;2022-11-15T09:09:33;7.23;;;4.03;;
15385;SDS011;7791;47.246;9.648;2022-11-15T09:11:59;7.47;;;4.03;;
15385;SDS011;7791;47.246;9.648;2022-11-15T09:14:27;8.33;;;3.97;;
15385;SDS011;7791;47.246;9.648;2022-11-15T09:16:55;7.90;;;4.57;;
15385;SDS011;7791;47.246;9.648;2022-11-15T09:19:21;10.57;;;5.17;;
15385;SDS011;7791;47.246;9.648;2022-11-15T09:21:47;7.37;;;4.17;;
15385;SDS011;7791;47.246;9.648;2022-11-15T09:24:13;8.10;;;4.20;;
15385;SDS011;7791;47.246;9.648;2022-11-15T09:26:40;8.07;;;4.40;;
15385;SDS011;7791;47.246;9.648;2022-11-15T09:29:06;7.23;;;3.87;;
15385;SDS011;7791;47.246;9.648;2022-11-15T09:31:41;5.17;;;3.37;;
15385;SDS011;7791;47.246;9.648;2022-11-15T09:34:08;11.17;;;3.93;;
15385;SDS011;7791;47.246;9.648;2022-11-15T09:36:36;5.63;;;3.63;;
15385;SDS011;7791;47.246;9.648;2022-11-15T09:39:04;7.67;;;3.87;;
15385;SDS011;7791;47.246;9.648;2022-11-15T09:41:48;4.23;;;2.80;;
15385;SDS011;7791;47.246;9.648;2022-11-15T09:44:36;6.40;;;2.97;;
15385;SDS011;7791;47.246;9.648;2022-11-15T09:47:21;5.90;;;2.60;;
15385;SDS011;7791;47.246;9.648;2022-11-15T09:50:08;5.47;;;2.93;;
15385;SDS011;7791;47.246;9.648;2022-11-15T09:52:35;5.10;;;2.30;;
15385;SDS011;7791;47.246;9.648;2022-11-15T09:55:04;6.73;;;2.70;;
15385;SDS011;7791;47.246;9.648;2022-11-15T09:57:37;4.37;;;2.43;;
15385;SDS011;7791;47.246;9.648;2022-11-15T10:00:09;8.57;;;2.70;;
15385;SDS011;7791;47.246;9.648;2022-11-15T10:02:46;6.17;;;2.50;;
15385;SDS011;7791;47.246;9.648;2022-11-15T10:05:41;4.73;;;2.60;;
15385;SDS011;7791;47.246;9.648;2022-11-15T10:08:24;7.00;;;2.47;;
15385;SDS011;7791;47.246;9.648;2022-11-15T10:10:57;7.40;;;3.00;;
15385;SDS011;7791;47.246;9.648;2022-11-15T10:13:30;6.23;;;3.20;;
15385;SDS011;7791;47.246;9.648;2022-11-15T10:16:12;8.60;;;3.37;;
15385;SDS011;7791;47.246;9.648;2022-11-15T10:19:03;9.60;;;4.43;;
15385;SDS011;7791;47.246;9.648;2022-11-15T10:21:41;5.63;;;3.43;;
15385;SDS011;7791;47.246;9.648;2022-11-15T10:24:22;8.40;;;3.70;;
15385;SDS011;7791;47.246;9.648;2022-11-15T10:26:51;7.80;;;3.20;;
15385;SDS011;7791;47.246;9.648;2022-11-15T10:29:20;6.10;;;3.17;;
15385;SDS011;7791;47.246;9.648;2022-11-15T10:31:48;7.13;;;2.93;;
15385;SDS011;7791;47.246;9.648;2022-11-15T10:34:22;4.87;;;2.33;;
15385;SDS011;7791;47.246;9.648;2022-11-15T10:36:53;6.93;;;2.77;;
15385;SDS011;7791;47.246;9.648;2022-11-15T10:39:21;6.07;;;2.40;;
15385;SDS011;7791;47.246;9.648;2022-11-15T10:41:51;9.70;;;2.70;;
15385;SDS011;7791;47.246;9.648;2022-11-15T10:44:21;7.00;;;2.60;;
15385;SDS011;7791;47.246;9.648;2022-11-15T10:47:06;3.53;;;2.07;;
15385;SDS011;7791;47.246;9.648;2022-11-15T10:49:54;6.30;;;2.10;;
15385;SDS011;7791;47.246;9.648;2022-11-15T10:52:24;4.67;;;2.80;;
15385;SDS011;7791;47.246;9.648;2022-11-15T10:54:50;8.13;;;3.27;;
15385;SDS011;7791;47.246;9.648;2022-11-15T10:57:23;5.60;;;2.60;;
15385;SDS011;7791;47.246;9.648;2022-11-15T10:59:53;5.70;;;2.90;;
15385;SDS011;7791;47.246;9.648;2022-11-15T11:02:29;6.63;;;3.23;;
15385;SDS011;7791;47.246;9.648;2022-11-15T11:05:01;7.77;;;3.03;;
15385;SDS011;7791;47.246;9.648;2022-11-15T11:07:30;7.13;;;3.20;;
15385;SDS011;7791;47.246;9.648;2022-11-15T11:10:03;7.00;;;2.87;;
15385;SDS011;7791;47.246;9.648;2022-11-15T11:12:46;10.07;;;3.20;;
15385;SDS011;7791;47.246;9.648;2022-11-15T11:15:14;7.77;;;4.27;;
15385;SDS011;7791;47.246;9.648;2022-11-15T11:17:47;5.67;;;3.30;;
15385;SDS011;7791;47.246;9.648;2022-11-15T11:20:23;9.03;;;4.13;;
15385;SDS011;7791;47.246;9.648;2022-11-15T11:22:58;7.67;;;4.37;;
15385;SDS011;7791;47.246;9.648;2022-11-15T11:25:44;10.40;;;5.03;;
15385;SDS011;7791;47.246;9.648;2022-11-15T11:28:26;9.77;;;4.13;;
15385;SDS011;7791;47.246;9.648;2022-11-15T11:31:05;10.33;;;5.07;;
15385;SDS011;7791;47.246;9.648;2022-11-15T11:33:42;8.07;;;4.40;;
15385;SDS011;7791;47.246;9.648;2022-11-15T11:36:20;7.73;;;5.00;;
15385;SDS011;7791;47.246;9.648;2022-11-15T11:38:55;8.87;;;4.90;;
15385;SDS011;7791;47.246;9.648;2022-11-15T11:41:38;11.93;;;4.73;;
15385;SDS011;7791;47.246;9.648;2022-11-15T11:44:27;9.53;;;4.53;;
15385;SDS011;7791;47.246;9.648;2022-11-15T11:47:10;9.83;;;4.47;;
15385;SDS011;7791;47.246;9.648;2022-11-15T11:49:44;7.57;;;4.10;;
15385;SDS011;7791;47.246;9.648;2022-11-15T11:52:16;17.53;;;4.60;;
15385;SDS011;7791;47.246;9.648;2022-11-15T11:54:48;10.07;;;4.83;;
15385;SDS011;7791;47.246;9.648;2022-11-15T11:57:37;9.00;;;5.60;;
15385;SDS011;7791;47.246;9.648;2022-11-15T12:00:16;10.70;;;5.60;;
15385;SDS011;7791;47.246;9.648;2022-11-15T12:02:54;11.17;;;5.83;;
15385;SDS011;7791;47.246;9.648;2022-11-15T12:05:32;12.40;;;5.50;;
15385;SDS011;7791;47.246;9.648;2022-11-15T12:08:08;12.03;;;5.63;;
15385;SDS011;7791;47.246;9.648;2022-11-15T12:10:57;13.10;;;5.27;;
15385;SDS011;7791;47.246;9.648;2022-11-15T12:13:35;7.43;;;5.23;;
15385;SDS011;7791;47.246;9.648;2022-11-15T12:16:06;13.00;;;5.33;;
15385;SDS011;7791;47.246;9.648;2022-11-15T12:18:37;12.70;;;5.77;;
15385;SDS011;7791;47.246;9.648;2022-11-15T12:21:06;11.80;;;6.17;;
15385;SDS011;7791;47.246;9.648;2022-11-15T12:23:41;11.17;;;6.20;;
15385;SDS011;7791;47.246;9.648;2022-11-15T12:26:17;11.10;;;5.97;;
15385;SDS011;7791;47.246;9.648;2022-11-15T12:28:52;12.10;;;6.40;;
15385;SDS011;7791;47.246;9.648;2022-11-15T12:31:22;9.87;;;6.07;;
15385;SDS011;7791;47.246;9.648;2022-11-15T12:33:56;12.60;;;6.50;;
15385;SDS011;7791;47.246;9.648;2022-11-15T12:36:34;12.27;;;6.80;;
15385;SDS011;7791;47.246;9.648;2022-11-15T12:39:05;11.43;;;7.60;;
15385;SDS011;7791;47.246;9.648;2022-11-15T12:41:37;15.80;;;7.40;;
15385;SDS011;7791;47.246;9.648;2022-11-15T12:44:10;17.57;;;8.07;;
15385;SDS011;7791;47.246;9.648;2022-11-15T12:52:13;13.77;;;8.47;;
15385;SDS011;7791;47.246;9.648;2022-11-15T12:57:47;13.07;;;8.63;;
15385;SDS011;7791;47.246;9.648;2022-11-15T13:03:19;17.33;;;10.13;;
15385;SDS011;7791;47.246;9.648;2022-11-15T13:05:57;12.23;;;9.40;;
15385;SDS011;7791;47.246;9.648;2022-11-15T13:08:44;13.80;;;9.97;;
15385;SDS011;7791;47.246;9.648;2022-11-15T13:17:27;14.03;;;10.03;;
15385;SDS011;7791;47.246;9.648;2022-11-15T13:20:08;15.47;;;10.40;;
15385;SDS011;7791;47.246;9.648;2022-11-15T13:22:48;18.43;;;10.33;;
15385;SDS011;7791;47.246;9.648;2022-11-15T13:25:19;15.80;;;9.60;;
15385;SDS011;7791;47.246;9.648;2022-11-15T13:28:10;13.27;;;9.30;;
15385;SDS011;7791;47.246;9.648;2022-11-15T13:30:50;16.27;;;9.93;;
15385;SDS011;7791;47.246;9.648;2022-11-15T13:33:22;16.70;;;10.67;;
15385;SDS011;7791;47.246;9.648;2022-11-15T13:35:51;16.50;;;10.77;;
15385;SDS011;7791;47.246;9.648;2022-11-15T13:38:26;16.77;;;11.50;;
15385;SDS011;7791;47.246;9.648;2022-11-15T13:40:55;16.17;;;10.70;;
15385;SDS011;7791;47.246;9.648;2022-11-15T13:43:26;15.33;;;10.87;;
15385;SDS011;7791;47.246;9.648;2022-11-15T13:46:12;15.30;;;10.40;;
15385;SDS011;7791;47.246;9.648;2022-11-15T13:48:42;15.83;;;11.37;;
15385;SDS011;7791;47.246;9.648;2022-11-15T13:51:15;14.17;;;10.80;;
15385;SDS011;7791;47.246;9.648;2022-11-15T13:53:47;13.47;;;10.57;;
15385;SDS011;7791;47.246;9.648;2022-11-15T13:56:16;17.37;;;12.23;;
15385;SDS011;7791;47.246;9.648;2022-11-15T13:58:51;20.70;;;13.83;;
15385;SDS011;7791;47.246;9.648;2022-11-15T14:01:19;33.33;;;21.40;;
15385;SDS011;7791;47.246;9.648;2022-11-15T14:03:48;29.60;;;18.70;;
15385;SDS011;7791;47.246;9.648;2022-11-15T14:06:18;17.03;;;11.33;;
15385;SDS011;7791;47.246;9.648;2022-11-15T14:11:48;15.93;;;11.23;;
15385;SDS011;7791;47.246;9.648;2022-11-15T14:14:16;14.37;;;10.83;;
15385;SDS011;7791;47.246;9.648;2022-11-15T14:16:51;19.63;;;12.57;;
15385;SDS011;7791;47.246;9.648;2022-11-15T14:19:37;15.13;;;11.80;;
15385;SDS011;7791;47.246;9.648;2022-11-15T14:22:10;15.07;;;10.70;;
15385;SDS011;7791;47.246;9.648;2022-11-15T14:24:44;18.20;;;11.40;;
15385;SDS011;7791;47.246;9.648;2022-11-15T14:27:19;16.83;;;11.33;;
15385;SDS011;7791;47.246;9.648;2022-11-15T14:29:49;19.27;;;12.03;;
15385;SDS011;7791;47.246;9.648;2022-11-15T14:32:17;16.37;;;12.30;;
15385;SDS011;7791;47.246;9.648;2022-11-15T14:34:44;19.93;;;12.47;;
15385;SDS011;7791;47.246;9.648;2022-11-15T14:37:22;20.40;;;11.97;;
15385;SDS011;7791;47.246;9.648;2022-11-15T14:39:51;16.27;;;10.90;;
15385;SDS011;7791;47.246;9.648;2022-11-15T14:42:18;15.70;;;10.47;;
15385;SDS011;7791;47.246;9.648;2022-11-15T14:44:44;13.63;;;10.30;;
15385;SDS011;7791;47.246;9.648;2022-11-15T14:47:11;15.80;;;10.20;;
15385;SDS011;7791;47.246;9.648;2022-11-15T14:49:39;15.20;;;10.17;;
15385;SDS011;7791;47.246;9.648;2022-11-15T14:52:16;15.40;;;11.00;;
15385;SDS011;7791;47.246;9.648;2022-11-15T14:54:49;22.57;;;15.03;;
15385;SDS011;7791;47.246;9.648;2022-11-15T14:57:17;22.20;;;11.57;;
15385;SDS011;7791;47.246;9.648;2022-11-15T14:59:45;16.80;;;13.80;;
15385;SDS011;7791;47.246;9.648;2022-11-15T15:02:14;15.83;;;10.80;;
15385;SDS011;7791;47.246;9.648;2022-11-15T15:04:44;23.10;;;13.70;;
15385;SDS011;7791;47.246;9.648;2022-11-15T15:07:13;18.87;;;11.50;;
15385;SDS011;7791;47.246;9.648;2022-11-15T15:09:46;14.20;;;9.73;;
15385;SDS011;7791;47.246;9.648;2022-11-15T15:12:14;15.57;;;10.13;;
15385;SDS011;7791;47.246;9.648;2022-11-15T15:14:41;16.50;;;10.67;;
15385;SDS011;7791;47.246;9.648;2022-11-15T15:17:12;19.97;;;11.27;;
15385;SDS011;7791;47.246;9.648;2022-11-15T15:19:39;16.77;;;11.73;;
15385;SDS011;7791;47.246;9.648;2022-11-15T15:22:10;16.03;;;9.33;;
15385;SDS011;7791;47.246;9.648;2022-11-15T15:24:40;16.40;;;10.57;;
15385;SDS011;7791;47.246;9.648;2022-11-15T15:27:08;17.10;;;10.83;;
15385;SDS011;7791;47.246;9.648;2022-11-15T15:29:34;16.00;;;11.83;;